createdAt,value
2023-04-16T00:00:18.345Z,8.9
2023-04-16T00:01:25.493Z,8.9
2023-04-16T00:02:32.254Z,8.9
2023-04-16T00:03:39.363Z,8.9
2023-04-16T00:04:46.369Z,8.9
2023-04-16T00:05:53.374Z,8.9
2023-04-16T00:07:00.465Z,8.9
2023-04-16T00:08:07.118Z,8.8
2023-04-16T00:09:14.197Z,8.8
2023-04-16T00:11:28.819Z,8.8
2023-04-16T00:12:35.487Z,8.8
2023-04-16T00:13:42.048Z,8.8
2023-04-16T00:14:49.197Z,8.8
2023-04-16T00:15:56.315Z,8.8
2023-04-16T00:17:03.470Z,8.8
2023-04-16T00:18:09.984Z,8.8
2023-04-16T00:19:17.185Z,8.8
2023-04-16T00:20:24.145Z,8.8
2023-04-16T00:21:31.318Z,8.8
2023-04-16T00:22:38.511Z,8.8
2023-04-16T00:23:45.020Z,8.8
2023-04-16T00:24:52.090Z,8.8
2023-04-16T00:25:59.259Z,8.8
2023-04-16T00:27:06.419Z,8.8
2023-04-16T00:28:13.941Z,8.8
2023-04-16T00:29:20.036Z,8.8
2023-04-16T00:30:27.086Z,8.8
2023-04-16T00:31:34.206Z,8.8
2023-04-16T00:32:41.341Z,8.8
2023-04-16T00:33:48.418Z,8.8
2023-04-16T00:34:55.019Z,8.8
2023-04-16T00:36:02.074Z,8.8
2023-04-16T00:37:09.249Z,8.8
2023-04-16T00:38:16.359Z,8.9
2023-04-16T00:39:23.437Z,8.9
2023-04-16T00:40:30.035Z,8.9
2023-04-16T00:41:37.149Z,8.9
2023-04-16T00:42:44.262Z,8.9
2023-04-16T00:43:51.339Z,8.9
2023-04-16T00:44:58.427Z,8.9
2023-04-16T00:46:05.096Z,8.9
2023-04-16T00:47:12.106Z,8.9
2023-04-16T00:48:19.315Z,8.9
2023-04-16T00:49:26.362Z,8.9
2023-04-16T00:50:33.412Z,8.9
2023-04-16T00:51:39.996Z,9
2023-04-16T00:52:47.132Z,9
2023-04-16T00:53:54.240Z,8.9
2023-04-16T00:55:01.346Z,8.9
2023-04-16T00:56:08.471Z,8.9
2023-04-16T00:57:15.035Z,8.9
2023-04-16T00:58:22.128Z,8.9
2023-04-16T00:59:29.300Z,9
2023-04-16T01:00:36.359Z,8.9
2023-04-16T01:01:43.534Z,8.9
2023-04-16T01:02:50.172Z,9
2023-04-16T01:03:57.262Z,8.9
2023-04-16T01:05:04.269Z,8.9
2023-04-16T01:06:11.377Z,8.9
2023-04-16T01:07:18.579Z,9
2023-04-16T01:08:25.059Z,9
2023-04-16T01:09:32.171Z,9
2023-04-16T01:10:39.298Z,8.9
2023-04-16T01:11:46.407Z,8.9
2023-04-16T01:12:53.468Z,9
2023-04-16T01:15:07.197Z,8.9
2023-04-16T01:16:14.310Z,8.9
2023-04-16T01:17:21.416Z,9
2023-04-16T01:18:28.568Z,9
2023-04-16T01:20:42.118Z,9
2023-04-16T01:21:49.235Z,8.9
2023-04-16T01:22:56.370Z,9
2023-04-16T01:24:03.524Z,9
2023-04-16T01:25:10.211Z,9
2023-04-16T01:26:17.161Z,9
2023-04-16T01:27:24.302Z,9
2023-04-16T01:28:31.440Z,8.9
2023-04-16T01:29:38.504Z,8.9
2023-04-16T01:30:45.114Z,8.9
2023-04-16T01:31:52.302Z,8.9
2023-04-16T01:32:59.423Z,9
2023-04-16T01:34:06.445Z,9
2023-04-16T01:35:12.966Z,9
2023-04-16T01:36:20.148Z,9
2023-04-16T01:37:27.228Z,9
2023-04-16T01:38:34.335Z,9
2023-04-16T01:39:41.439Z,9
2023-04-16T01:40:47.973Z,8.9
2023-04-16T01:41:55.102Z,9
2023-04-16T01:43:02.252Z,9
2023-04-16T01:44:09.417Z,9
2023-04-16T01:45:16.468Z,8.9
2023-04-16T01:46:23.038Z,8.9
2023-04-16T01:47:30.189Z,9
2023-04-16T01:48:37.231Z,8.9
2023-04-16T01:49:44.271Z,8.9
2023-04-16T01:50:51.418Z,8.9
2023-04-16T01:51:58.038Z,8.9
2023-04-16T01:53:05.297Z,8.9
2023-04-16T01:54:12.220Z,8.9
2023-04-16T01:55:19.356Z,8.9
2023-04-16T01:56:26.969Z,8.9
2023-04-16T01:57:33.014Z,8.9
2023-04-16T01:58:40.189Z,8.9
2023-04-16T01:59:47.265Z,8.9
2023-04-16T02:00:54.401Z,8.8
2023-04-16T02:02:01.957Z,8.8
2023-04-16T02:03:08.719Z,8.8
2023-04-16T02:04:15.194Z,8.8
2023-04-16T02:05:22.262Z,8.8
2023-04-16T02:06:29.370Z,8.8
2023-04-16T02:07:36.506Z,8.8
2023-04-16T02:08:43.075Z,8.8
2023-04-16T02:09:50.117Z,8.8
2023-04-16T02:10:57.266Z,8.8
2023-04-16T02:12:04.346Z,8.8
2023-04-16T02:13:11.398Z,8.8
2023-04-16T02:14:18.057Z,8.8
2023-04-16T02:15:25.193Z,8.8
2023-04-16T02:16:32.310Z,8.8
2023-04-16T02:18:46.510Z,8.7
2023-04-16T02:19:53.124Z,8.7
2023-04-16T02:21:00.163Z,8.7
2023-04-16T02:22:07.248Z,8.7
2023-04-16T02:23:14.350Z,8.7
2023-04-16T02:24:21.510Z,8.7
2023-04-16T02:25:28.028Z,8.7
2023-04-16T02:26:35.224Z,8.7
2023-04-16T02:27:42.229Z,8.7
2023-04-16T02:28:49.369Z,8.7
2023-04-16T02:29:56.507Z,8.7
2023-04-16T02:31:03.054Z,8.7
2023-04-16T02:32:10.320Z,8.7
2023-04-16T02:33:17.303Z,8.7
2023-04-16T02:34:24.356Z,8.6
2023-04-16T02:35:31.435Z,8.7
2023-04-16T02:36:38.078Z,8.6
2023-04-16T02:37:45.145Z,8.6
2023-04-16T02:38:52.330Z,8.6
2023-04-16T02:39:59.401Z,8.6
2023-04-16T02:41:06.477Z,8.6
2023-04-16T02:42:13.059Z,8.6
2023-04-16T02:43:20.159Z,8.6
2023-04-16T02:44:27.290Z,8.6
2023-04-16T02:45:34.391Z,8.6
2023-04-16T02:46:41.451Z,8.6
2023-04-16T02:48:55.267Z,8.6
2023-04-16T02:50:02.340Z,8.6
2023-04-16T02:51:09.402Z,8.6
2023-04-16T02:52:16.551Z,8.6
2023-04-16T02:53:23.066Z,8.6
2023-04-16T02:54:30.285Z,8.6
2023-04-16T02:55:37.314Z,8.6
2023-04-16T02:56:44.348Z,8.6
2023-04-16T02:57:50.996Z,8.6
2023-04-16T02:58:58.169Z,8.6
2023-04-16T03:00:05.260Z,8.6
2023-04-16T03:01:12.363Z,8.6
2023-04-16T03:02:19.457Z,8.6
2023-04-16T03:03:26.079Z,8.6
2023-04-16T03:04:33.295Z,8.6
2023-04-16T03:05:40.475Z,8.6
2023-04-16T03:06:47.270Z,8.6
2023-04-16T03:07:54.496Z,8.6
2023-04-16T03:09:00.985Z,8.6
2023-04-16T03:10:08.080Z,8.6
2023-04-16T03:11:15.192Z,8.6
2023-04-16T03:12:22.267Z,8.6
2023-04-16T03:13:29.400Z,8.6
2023-04-16T03:14:36.053Z,8.6
2023-04-16T03:15:43.121Z,8.6
2023-04-16T03:16:50.249Z,8.6
2023-04-16T03:17:57.406Z,8.6
2023-04-16T03:19:04.434Z,8.6
2023-04-16T03:20:11.016Z,8.6
2023-04-16T03:22:25.245Z,8.6
2023-04-16T03:23:32.346Z,8.7
2023-04-16T03:24:39.946Z,8.7
2023-04-16T03:25:46.091Z,8.7
2023-04-16T03:26:53.150Z,8.7
2023-04-16T03:28:00.286Z,8.7
2023-04-16T03:29:07.541Z,8.7
2023-04-16T03:30:14.446Z,8.7
2023-04-16T03:31:21.032Z,8.7
2023-04-16T03:32:28.166Z,8.7
2023-04-16T03:33:35.333Z,8.7
2023-04-16T03:34:42.304Z,8.7
2023-04-16T03:35:49.465Z,8.7
2023-04-16T03:36:56.036Z,8.7
2023-04-16T03:38:03.138Z,8.7
2023-04-16T03:39:10.589Z,8.7
2023-04-16T03:40:17.371Z,8.7
2023-04-16T03:41:24.505Z,8.7
2023-04-16T03:42:31.059Z,8.7
2023-04-16T03:43:38.204Z,8.7
2023-04-16T03:44:45.321Z,8.7
2023-04-16T03:45:52.437Z,8.7
2023-04-16T03:46:59.587Z,8.7
2023-04-16T03:48:06.055Z,8.7
2023-04-16T03:49:13.212Z,8.7
2023-04-16T03:50:20.306Z,8.7
2023-04-16T03:51:27.400Z,8.7
2023-04-16T03:52:34.465Z,8.7
2023-04-16T03:53:41.127Z,8.7
2023-04-16T03:54:48.216Z,8.7
2023-04-16T03:55:55.250Z,8.7
2023-04-16T03:57:02.439Z,8.7
2023-04-16T03:58:09.462Z,8.7
2023-04-16T03:59:16.093Z,8.7
2023-04-16T04:00:23.196Z,8.7
2023-04-16T04:01:30.305Z,8.7
2023-04-16T04:02:37.573Z,8.7
2023-04-16T04:03:44.751Z,8.7
2023-04-16T04:04:51.235Z,8.7
2023-04-16T04:05:58.174Z,8.7
2023-04-16T04:07:05.336Z,8.7
2023-04-16T04:08:12.385Z,8.7
2023-04-16T04:09:19.546Z,8.7
2023-04-16T04:10:26.117Z,8.7
2023-04-16T04:11:33.162Z,8.7
2023-04-16T04:12:40.337Z,8.7
2023-04-16T04:13:47.410Z,8.7
2023-04-16T04:14:54.520Z,8.7
2023-04-16T04:17:08.205Z,8.7
2023-04-16T04:18:15.335Z,8.7
2023-04-16T04:19:22.455Z,8.7
2023-04-16T04:20:29.006Z,8.7
2023-04-16T04:21:36.132Z,8.7
2023-04-16T04:22:43.231Z,8.7
2023-04-16T04:23:50.308Z,8.7
2023-04-16T04:26:04.093Z,8.6
2023-04-16T04:27:11.176Z,8.6
2023-04-16T04:28:18.210Z,8.6
2023-04-16T04:29:25.423Z,8.6
2023-04-16T04:30:32.380Z,8.6
2023-04-16T04:31:39.051Z,8.7
2023-04-16T04:32:46.183Z,8.6
2023-04-16T04:33:53.180Z,8.6
2023-04-16T04:35:00.328Z,8.6
2023-04-16T04:36:07.405Z,8.6
2023-04-16T04:37:14.009Z,8.7
2023-04-16T04:38:21.241Z,8.6
2023-04-16T04:39:28.268Z,8.6
2023-04-16T04:40:35.359Z,8.7
2023-04-16T04:41:42.442Z,8.6
2023-04-16T04:42:49.079Z,8.6
2023-04-16T04:43:56.290Z,8.6
2023-04-16T04:45:03.255Z,8.6
2023-04-16T04:46:10.375Z,8.6
2023-04-16T04:47:17.428Z,8.6
2023-04-16T04:48:24.029Z,8.6
2023-04-16T04:49:31.095Z,8.6
2023-04-16T04:50:38.269Z,8.6
2023-04-16T04:51:45.344Z,8.6
2023-04-16T04:52:52.934Z,8.6
2023-04-16T04:53:59.154Z,8.6
2023-04-16T04:55:06.201Z,8.6
2023-04-16T04:56:13.394Z,8.7
2023-04-16T04:57:20.375Z,8.7
2023-04-16T04:58:27.456Z,8.7
2023-04-16T04:59:33.993Z,8.7
2023-04-16T05:00:41.143Z,8.7
2023-04-16T05:01:48.288Z,8.7
2023-04-16T05:02:55.515Z,8.7
2023-04-16T05:04:02.481Z,8.7
2023-04-16T05:05:09.124Z,8.6
2023-04-16T05:06:16.178Z,8.6
2023-04-16T05:07:23.308Z,8.6
2023-04-16T05:08:30.362Z,8.6
2023-04-16T05:09:37.536Z,8.6
2023-04-16T05:10:44.054Z,8.7
2023-04-16T05:11:51.153Z,8.7
2023-04-16T05:12:58.488Z,8.7
2023-04-16T05:14:05.430Z,8.7
2023-04-16T05:15:12.492Z,8.7
2023-04-16T05:16:19.168Z,8.7
2023-04-16T05:17:26.219Z,8.7
2023-04-16T05:18:33.244Z,8.7
2023-04-16T05:19:40.445Z,8.7
2023-04-16T05:20:47.552Z,8.7
2023-04-16T05:21:54.087Z,8.7
2023-04-16T05:23:01.178Z,8.7
2023-04-16T05:24:08.323Z,8.7
2023-04-16T05:25:15.385Z,8.7
2023-04-16T05:26:22.002Z,8.8
2023-04-16T05:27:29.071Z,8.8
2023-04-16T05:29:43.275Z,8.8
2023-04-16T05:30:50.418Z,8.8
2023-04-16T05:31:56.967Z,8.8
2023-04-16T05:33:04.073Z,8.8
2023-04-16T05:34:11.218Z,8.8
2023-04-16T05:35:18.301Z,8.8
2023-04-16T05:36:25.414Z,8.8
2023-04-16T05:37:32.067Z,8.8
2023-04-16T05:38:39.116Z,8.8
2023-04-16T05:39:46.311Z,8.8
2023-04-16T05:40:53.310Z,8.8
2023-04-16T05:42:02.126Z,8.8
2023-04-16T05:43:06.985Z,8.8
2023-04-16T05:45:21.298Z,8.8
2023-04-16T05:46:28.366Z,8.8
2023-04-16T05:47:35.462Z,8.8
2023-04-16T05:48:41.970Z,8.8
2023-04-16T05:49:49.235Z,8.8
2023-04-16T05:50:56.235Z,8.8
2023-04-16T05:52:03.331Z,8.8
2023-04-16T05:53:10.443Z,8.8
2023-04-16T05:54:16.994Z,8.8
2023-04-16T05:55:24.119Z,8.8
2023-04-16T05:56:31.182Z,8.8
2023-04-16T05:57:38.374Z,8.8
2023-04-16T05:58:45.476Z,8.9
2023-04-16T05:59:52.027Z,8.9
2023-04-16T06:00:59.142Z,8.9
2023-04-16T06:02:06.275Z,8.9
2023-04-16T06:03:13.434Z,8.9
2023-04-16T06:04:20.569Z,8.9
2023-04-16T06:05:27.062Z,8.9
2023-04-16T06:06:34.182Z,8.9
2023-04-16T06:07:41.228Z,8.9
2023-04-16T06:08:48.386Z,8.9
2023-04-16T06:09:55.471Z,8.9
2023-04-16T06:11:01.989Z,8.9
2023-04-16T06:12:09.138Z,8.9
2023-04-16T06:13:16.247Z,8.9
2023-04-16T06:14:23.372Z,8.9
2023-04-16T06:15:30.469Z,8.9
2023-04-16T06:16:37.035Z,8.9
2023-04-16T06:17:44.120Z,9
2023-04-16T06:18:51.215Z,9
2023-04-16T06:19:58.396Z,9
2023-04-16T06:21:05.482Z,9
2023-04-16T06:22:12.031Z,9
2023-04-16T06:23:19.147Z,9
2023-04-16T06:24:26.300Z,9
2023-04-16T06:25:33.419Z,9
2023-04-16T06:26:40.460Z,9.1
2023-04-16T06:27:47.042Z,9.1
2023-04-16T06:28:54.249Z,9.1
2023-04-16T06:30:01.495Z,9.1
2023-04-16T06:31:16.677Z,9.1
2023-04-16T06:33:22.019Z,9.1
2023-04-16T06:34:29.212Z,9.1
2023-04-16T06:35:36.321Z,9.2
2023-04-16T06:36:43.421Z,9.1
2023-04-16T06:37:50.489Z,9.1
2023-04-16T06:38:57.066Z,9.1
2023-04-16T06:40:04.290Z,9.1
2023-04-16T06:41:11.304Z,9.2
2023-04-16T06:42:18.401Z,9.2
2023-04-16T06:43:25.452Z,9.1
2023-04-16T06:44:32.128Z,9.1
2023-04-16T06:45:39.212Z,9.1
2023-04-16T06:46:46.384Z,9.1
2023-04-16T06:47:53.559Z,9.2
2023-04-16T06:49:00.013Z,9.2
2023-04-16T06:50:07.079Z,9.1
2023-04-16T06:51:14.206Z,9.1
2023-04-16T06:52:21.340Z,9.1
2023-04-16T06:53:28.411Z,9.2
2023-04-16T06:54:34.983Z,9.2
2023-04-16T06:55:42.057Z,9.2
2023-04-16T06:56:49.246Z,9.2
2023-04-16T06:57:56.315Z,9.2
2023-04-16T06:59:03.572Z,9.2
2023-04-16T07:00:09.996Z,9.2
2023-04-16T07:01:17.170Z,9.2
2023-04-16T07:02:24.334Z,9.2
2023-04-16T07:03:31.438Z,9.2
2023-04-16T07:04:38.454Z,9.2
2023-04-16T07:05:45.025Z,9.3
2023-04-16T07:06:52.091Z,9.3
2023-04-16T07:07:59.202Z,9.3
2023-04-16T07:09:06.377Z,9.3
2023-04-16T07:10:13.462Z,9.3
2023-04-16T07:11:20.029Z,9.3
2023-04-16T07:13:34.213Z,9.3
2023-04-16T07:14:41.351Z,9.3
2023-04-16T07:15:48.481Z,9.3
2023-04-16T07:18:02.128Z,9.3
2023-04-16T07:19:09.538Z,9.3
2023-04-16T07:20:16.332Z,9.3
2023-04-16T07:21:23.446Z,9.3
2023-04-16T07:22:30.050Z,9.3
2023-04-16T07:23:37.147Z,9.3
2023-04-16T07:24:44.350Z,9.4
2023-04-16T07:25:51.340Z,9.4
2023-04-16T07:26:58.460Z,9.4
2023-04-16T07:28:05.032Z,9.4
2023-04-16T07:29:12.432Z,9.5
2023-04-16T07:30:19.239Z,9.5
2023-04-16T07:31:26.435Z,9.5
2023-04-16T07:32:33.474Z,9.5
2023-04-16T07:33:40.060Z,9.5
2023-04-16T07:34:47.181Z,9.5
2023-04-16T07:37:01.392Z,9.6
2023-04-16T07:38:08.460Z,9.6
2023-04-16T07:39:15.111Z,9.6
2023-04-16T07:40:22.118Z,9.6
2023-04-16T07:41:29.278Z,9.6
2023-04-16T07:42:36.364Z,9.7
2023-04-16T07:43:43.479Z,9.7
2023-04-16T07:44:50.061Z,9.7
2023-04-16T07:45:57.219Z,9.7
2023-04-16T07:47:05.567Z,9.8
2023-04-16T07:48:11.367Z,9.8
2023-04-16T07:49:18.525Z,9.8
2023-04-16T07:50:25.038Z,9.8
2023-04-16T07:51:32.172Z,9.9
2023-04-16T07:52:39.322Z,9.9
2023-04-16T07:53:46.413Z,9.9
2023-04-16T07:54:53.495Z,9.9
2023-04-16T07:56:00.136Z,9.9
2023-04-16T07:57:07.199Z,9.9
2023-04-16T07:58:14.267Z,9.9
2023-04-16T07:59:23.582Z,9.9
2023-04-16T08:00:27.999Z,10
2023-04-16T08:01:35.205Z,10
2023-04-16T08:02:42.283Z,10
2023-04-16T08:03:49.405Z,10
2023-04-16T08:04:56.536Z,10
2023-04-16T08:06:02.958Z,10.1
2023-04-16T08:07:10.116Z,10.1
2023-04-16T08:08:17.214Z,10.1
2023-04-16T08:09:24.290Z,10.2
2023-04-16T08:10:31.428Z,10.2
2023-04-16T08:11:38.027Z,10.1
2023-04-16T08:12:45.116Z,10.2
2023-04-16T08:13:52.193Z,10.2
2023-04-16T08:14:59.313Z,10.2
2023-04-16T08:16:06.520Z,10.2
2023-04-16T08:17:13.009Z,10.2
2023-04-16T08:18:20.104Z,10.2
2023-04-16T08:19:27.271Z,10.2
2023-04-16T08:20:34.272Z,10.3
2023-04-16T08:21:41.478Z,10.3
2023-04-16T08:22:48.079Z,10.3
2023-04-16T08:23:55.098Z,10.3
2023-04-16T08:25:02.255Z,10.3
2023-04-16T08:26:09.363Z,10.3
2023-04-16T08:27:20.007Z,10.3
2023-04-16T08:28:23.026Z,10.3
2023-04-16T08:29:30.187Z,10.3
2023-04-16T08:30:37.276Z,10.4
2023-04-16T08:31:44.428Z,10.4
2023-04-16T08:32:51.451Z,10.4
2023-04-16T08:33:58.044Z,10.4
2023-04-16T08:35:05.177Z,10.4
2023-04-16T08:36:12.228Z,10.4
2023-04-16T08:37:19.334Z,10.4
2023-04-16T08:38:26.445Z,10.5
2023-04-16T08:41:47.261Z,10.6
2023-04-16T08:42:54.368Z,10.6
2023-04-16T08:44:01.444Z,10.6
2023-04-16T08:45:08.098Z,10.6
2023-04-16T08:46:15.180Z,10.7
2023-04-16T08:47:22.302Z,10.7
2023-04-16T08:48:29.410Z,10.7
2023-04-16T08:49:36.617Z,10.7
2023-04-16T08:50:43.029Z,10.7
2023-04-16T08:51:50.177Z,10.8
2023-04-16T08:52:57.227Z,10.8
2023-04-16T08:54:04.314Z,10.8
2023-04-16T08:55:11.502Z,10.8
2023-04-16T08:56:18.066Z,10.8
2023-04-16T08:57:25.177Z,10.9
2023-04-16T08:58:32.256Z,10.9
2023-04-16T08:59:39.424Z,10.9
2023-04-16T09:00:46.463Z,11
2023-04-16T09:01:53.149Z,11
2023-04-16T09:03:00.307Z,11
2023-04-16T09:04:07.564Z,11
2023-04-16T09:05:14.409Z,11
2023-04-16T09:06:21.568Z,11.1
2023-04-16T09:07:28.069Z,11.1
2023-04-16T09:08:35.184Z,11.2
2023-04-16T09:09:42.315Z,11.2
2023-04-16T09:10:49.394Z,11.2
2023-04-16T09:11:56.003Z,11.2
2023-04-16T09:13:03.040Z,11.3
2023-04-16T09:14:10.209Z,11.3
2023-04-16T09:15:17.343Z,11.3
2023-04-16T09:16:24.434Z,11.3
2023-04-16T09:17:31.533Z,11.3
2023-04-16T09:18:38.115Z,11.4
2023-04-16T09:19:45.179Z,11.4
2023-04-16T09:20:52.301Z,11.4
2023-04-16T09:22:02.143Z,11.4
2023-04-16T09:23:06.002Z,11.4
2023-04-16T09:24:13.094Z,11.4
2023-04-16T09:25:20.274Z,11.4
2023-04-16T09:26:27.481Z,11.5
2023-04-16T09:27:34.412Z,11.5
2023-04-16T09:28:40.951Z,11.5
2023-04-16T09:29:48.101Z,11.6
2023-04-16T09:30:55.228Z,11.5
2023-04-16T09:32:02.311Z,11.6
2023-04-16T09:33:09.414Z,11.6
2023-04-16T09:34:16.025Z,11.6
2023-04-16T09:35:23.123Z,11.7
2023-04-16T09:36:30.263Z,11.7
2023-04-16T09:37:37.334Z,11.7
2023-04-16T09:38:44.384Z,11.7
2023-04-16T09:39:50.972Z,11.8
2023-04-16T09:40:58.073Z,11.9
2023-04-16T09:42:05.223Z,11.9
2023-04-16T09:44:19.476Z,12
2023-04-16T09:45:26.012Z,12
2023-04-16T09:46:33.144Z,12
2023-04-16T09:47:40.273Z,12.1
2023-04-16T09:48:47.376Z,12.2
2023-04-16T09:49:54.469Z,12.2
2023-04-16T09:51:01.041Z,12.2
2023-04-16T09:52:08.239Z,12.3
2023-04-16T09:53:15.237Z,12.3
2023-04-16T09:54:22.306Z,12.4
2023-04-16T09:55:29.445Z,12.4
2023-04-16T09:56:36.018Z,12.4
2023-04-16T09:57:43.114Z,12.4
2023-04-16T09:58:50.269Z,12.5
2023-04-16T09:59:57.446Z,12.6
2023-04-16T10:01:04.499Z,12.5
2023-04-16T10:02:14.875Z,12.6
2023-04-16T10:03:18.240Z,12.6
2023-04-16T10:04:25.386Z,12.7
2023-04-16T10:05:32.312Z,12.7
2023-04-16T10:06:39.430Z,12.7
2023-04-16T10:07:46.039Z,12.8
2023-04-16T10:10:00.321Z,12.8
2023-04-16T10:11:07.375Z,12.9
2023-04-16T10:12:13.943Z,12.9
2023-04-16T10:13:21.049Z,12.9
2023-04-16T10:14:28.269Z,12.9
2023-04-16T10:15:35.262Z,12.9
2023-04-16T10:16:42.396Z,12.9
2023-04-16T10:17:49.084Z,12.9
2023-04-16T10:18:56.055Z,12.9
2023-04-16T10:20:03.186Z,12.9
2023-04-16T10:21:10.289Z,12.9
2023-04-16T10:22:17.411Z,12.9
2023-04-16T10:23:23.941Z,12.9
2023-04-16T10:24:31.085Z,12.9
2023-04-16T10:25:38.243Z,12.9
2023-04-16T10:26:45.328Z,12.9
2023-04-16T10:27:52.399Z,13
2023-04-16T10:28:58.968Z,12.9
2023-04-16T10:30:06.152Z,13
2023-04-16T10:31:13.247Z,13
2023-04-16T10:32:20.307Z,13
2023-04-16T10:33:27.406Z,13
2023-04-16T10:34:34.031Z,13
2023-04-16T10:35:41.119Z,13
2023-04-16T10:36:48.209Z,13
2023-04-16T10:37:55.309Z,13
2023-04-16T10:39:02.441Z,13
2023-04-16T10:40:09.015Z,12.9
2023-04-16T10:41:16.087Z,12.9
2023-04-16T10:42:23.197Z,12.9
2023-04-16T10:43:30.354Z,12.9
2023-04-16T10:44:37.564Z,12.9
2023-04-16T10:45:44.512Z,12.9
2023-04-16T10:47:58.313Z,12.9
2023-04-16T10:49:05.284Z,12.9
2023-04-16T10:50:12.502Z,12.8
2023-04-16T10:51:19.001Z,12.8
2023-04-16T10:52:26.150Z,12.8
2023-04-16T10:53:33.231Z,12.7
2023-04-16T10:54:40.325Z,12.7
2023-04-16T10:55:47.472Z,12.6
2023-04-16T10:56:54.083Z,12.6
2023-04-16T10:58:01.113Z,12.5
2023-04-16T10:59:08.499Z,12.5
2023-04-16T11:00:15.389Z,12.4
2023-04-16T11:01:22.509Z,12.4
2023-04-16T11:02:29.449Z,12.4
2023-04-16T11:03:36.219Z,12.4
2023-04-16T11:04:43.347Z,12.4
2023-04-16T11:05:50.342Z,12.3
2023-04-16T11:06:57.490Z,12.3
2023-04-16T11:08:04.026Z,12.3
2023-04-16T11:09:11.316Z,12.3
2023-04-16T11:10:18.234Z,12.3
2023-04-16T11:11:25.332Z,12.3
2023-04-16T11:12:32.406Z,12.3
2023-04-16T11:13:39.029Z,12.3
2023-04-16T11:14:46.187Z,12.3
2023-04-16T11:15:53.264Z,12.3
2023-04-16T11:17:00.334Z,12.3
2023-04-16T11:18:07.554Z,12.2
2023-04-16T11:19:14.031Z,12.3
2023-04-16T11:20:21.430Z,12.3
2023-04-16T11:21:28.293Z,12.2
2023-04-16T11:22:35.396Z,12.3
2023-04-16T11:23:42.446Z,12.2
2023-04-16T11:24:49.068Z,12.3
2023-04-16T11:25:56.158Z,12.3
2023-04-16T11:27:03.257Z,12.3
2023-04-16T11:28:10.353Z,12.3
2023-04-16T11:29:17.461Z,12.3
2023-04-16T11:30:24.063Z,12.3
2023-04-16T11:31:31.163Z,12.3
2023-04-16T11:32:38.317Z,12.3
2023-04-16T11:33:45.404Z,12.3
2023-04-16T11:34:51.961Z,12.3
2023-04-16T11:35:59.091Z,12.3
2023-04-16T11:38:13.406Z,12.2
2023-04-16T11:39:20.389Z,12.2
2023-04-16T11:40:26.996Z,12.2
2023-04-16T11:41:34.065Z,12.2
2023-04-16T11:42:41.174Z,12.2
2023-04-16T11:43:48.270Z,12.2
2023-04-16T11:44:55.420Z,12.1
2023-04-16T11:46:05.544Z,12.1
2023-04-16T11:47:09.098Z,12
2023-04-16T11:48:16.274Z,12
2023-04-16T11:49:23.372Z,12
2023-04-16T11:51:37.069Z,12
2023-04-16T11:52:44.093Z,12
2023-04-16T11:53:51.176Z,12
2023-04-16T11:54:58.352Z,11.9
2023-04-16T11:56:05.423Z,11.9
2023-04-16T11:57:11.945Z,11.9
2023-04-16T11:58:19.113Z,11.9
2023-04-16T11:59:26.206Z,11.9
2023-04-16T12:00:33.343Z,11.9
2023-04-16T12:01:40.491Z,11.9
2023-04-16T12:02:47.119Z,11.9
2023-04-16T12:03:54.510Z,11.9
2023-04-16T12:05:01.263Z,11.9
2023-04-16T12:06:08.323Z,11.9
2023-04-16T12:07:15.463Z,11.9
2023-04-16T12:08:22.014Z,11.9
2023-04-16T12:09:29.131Z,11.9
2023-04-16T12:10:36.247Z,11.9
2023-04-16T12:11:43.327Z,11.9
2023-04-16T12:12:50.427Z,11.9
2023-04-16T12:13:57.560Z,11.9
2023-04-16T12:15:04.222Z,11.9
2023-04-16T12:16:11.348Z,11.9
2023-04-16T12:17:18.384Z,11.8
2023-04-16T12:18:25.470Z,11.8
2023-04-16T12:19:32.006Z,11.8
2023-04-16T12:20:39.157Z,11.8
2023-04-16T12:21:46.265Z,11.8
2023-04-16T12:22:53.287Z,11.8
2023-04-16T12:24:00.447Z,11.8
2023-04-16T12:25:07.022Z,11.8
2023-04-16T12:26:14.173Z,11.8
2023-04-16T12:27:21.216Z,11.9
2023-04-16T12:28:28.399Z,11.9
2023-04-16T12:29:35.459Z,11.9
2023-04-16T12:30:42.100Z,11.9
2023-04-16T12:31:49.175Z,11.9
2023-04-16T12:34:03.309Z,12
2023-04-16T12:35:10.025Z,12
2023-04-16T12:36:17.041Z,12
2023-04-16T12:37:24.274Z,12
2023-04-16T12:38:31.264Z,12.1
2023-04-16T12:39:38.362Z,12.1
2023-04-16T12:40:44.989Z,12.2
2023-04-16T12:41:52.043Z,12.2
2023-04-16T12:42:59.186Z,12.2
2023-04-16T12:44:06.246Z,12.2
2023-04-16T12:45:13.410Z,12.2
2023-04-16T12:46:20.071Z,12.3
2023-04-16T12:47:27.075Z,12.3
2023-04-16T12:48:34.134Z,12.3
2023-04-16T12:49:41.254Z,12.3
2023-04-16T12:50:48.436Z,12.3
2023-04-16T12:51:54.932Z,12.4
2023-04-16T12:53:02.102Z,12.4
2023-04-16T12:55:16.272Z,12.4
2023-04-16T12:56:23.481Z,12.5
2023-04-16T12:57:29.964Z,12.5
2023-04-16T12:58:37.122Z,12.5
2023-04-16T12:59:44.255Z,12.5
2023-04-16T13:00:51.319Z,12.6
2023-04-16T13:01:58.477Z,12.6
2023-04-16T13:03:05.180Z,12.6
2023-04-16T13:04:12.226Z,12.6
2023-04-16T13:05:19.376Z,12.6
2023-04-16T13:06:26.324Z,12.6
2023-04-16T13:07:33.382Z,12.6
2023-04-16T13:08:40.030Z,12.6
2023-04-16T13:09:47.090Z,12.6
2023-04-16T13:10:54.153Z,12.6
2023-04-16T13:12:02.204Z,12.6
2023-04-16T13:13:08.456Z,12.6
2023-04-16T13:14:15.118Z,12.6
2023-04-16T13:15:22.083Z,12.6
2023-04-16T13:16:29.245Z,12.6
2023-04-16T13:17:36.383Z,12.6
2023-04-16T13:18:43.376Z,12.5
2023-04-16T13:19:50.058Z,12.4
2023-04-16T13:20:57.126Z,12.4
2023-04-16T13:22:04.204Z,12.4
2023-04-16T13:23:11.317Z,12.4
2023-04-16T13:24:18.437Z,12.4
2023-04-16T13:25:25.038Z,12.4
2023-04-16T13:26:32.115Z,12.4
2023-04-16T13:27:39.225Z,12.4
2023-04-16T13:28:46.317Z,12.4
2023-04-16T13:29:53.447Z,12.4
2023-04-16T13:31:00.056Z,12.3
2023-04-16T13:32:07.100Z,12.3
2023-04-16T13:33:14.206Z,12.3
2023-04-16T13:34:21.325Z,12.2
2023-04-16T13:35:28.490Z,12.2
2023-04-16T13:36:35.077Z,12.2
2023-04-16T13:37:42.105Z,12.2
2023-04-16T13:38:49.246Z,12.2
2023-04-16T13:39:56.293Z,12.2
2023-04-16T13:41:02.924Z,12.2
2023-04-16T13:42:10.558Z,12.2
2023-04-16T13:43:17.151Z,12.1
2023-04-16T13:44:24.244Z,12.1
2023-04-16T13:45:31.315Z,12.1
2023-04-16T13:46:38.028Z,12.2
2023-04-16T13:47:45.070Z,12.1
2023-04-16T13:48:52.115Z,12.1
2023-04-16T13:49:59.322Z,12.1
2023-04-16T13:51:06.401Z,12
2023-04-16T13:52:12.981Z,12.1
2023-04-16T13:53:20.059Z,12.1
2023-04-16T13:54:27.141Z,12.1
2023-04-16T13:55:34.208Z,12.1
2023-04-16T13:56:41.352Z,12.1
2023-04-16T13:58:55.035Z,12.2
2023-04-16T14:00:02.181Z,12.2
2023-04-16T14:01:09.363Z,12.1
2023-04-16T14:02:16.566Z,12.1
2023-04-16T14:03:22.995Z,12.1
2023-04-16T14:04:30.118Z,12.1
2023-04-16T14:05:37.225Z,12.1
2023-04-16T14:06:44.222Z,12.1
2023-04-16T14:07:51.380Z,12.1
2023-04-16T14:08:57.957Z,12.2
2023-04-16T14:10:05.150Z,12.2
2023-04-16T14:11:12.136Z,12.2
2023-04-16T14:12:19.264Z,12.2
2023-04-16T14:13:26.384Z,12.2
2023-04-16T14:14:32.952Z,12.2
2023-04-16T14:15:40.113Z,12.2
2023-04-16T14:16:47.206Z,12.2
2023-04-16T14:17:54.351Z,12.2
2023-04-16T14:19:01.453Z,12.2
2023-04-16T14:20:08.091Z,12.3
2023-04-16T14:21:15.079Z,12.2
2023-04-16T14:22:22.145Z,12.3
2023-04-16T14:23:29.303Z,12.3
2023-04-16T14:24:36.396Z,12.2
2023-04-16T14:25:43.002Z,12.2
2023-04-16T14:26:50.132Z,12.2
2023-04-16T14:27:57.194Z,12.2
2023-04-16T14:29:04.303Z,12.2
2023-04-16T14:30:11.414Z,12.2
2023-04-16T14:31:18.066Z,12.2
2023-04-16T14:32:25.104Z,12.1
2023-04-16T14:33:32.202Z,12.1
2023-04-16T14:34:39.342Z,12.2
2023-04-16T14:35:46.500Z,12.2
2023-04-16T14:36:52.949Z,12.1
2023-04-16T14:38:00.140Z,12.1
2023-04-16T14:39:07.308Z,12.2
2023-04-16T14:40:14.372Z,12.2
2023-04-16T14:41:21.407Z,12.2
2023-04-16T14:42:27.988Z,12.2
2023-04-16T14:43:35.125Z,12.2
2023-04-16T14:44:42.252Z,12.2
2023-04-16T14:45:49.440Z,12.3
2023-04-16T14:46:56.433Z,12.2
2023-04-16T14:48:03.092Z,12.2
2023-04-16T14:49:11.938Z,12.2
2023-04-16T14:50:17.290Z,12.2
2023-04-16T14:51:24.343Z,12.2
2023-04-16T14:52:30.909Z,12.3
2023-04-16T14:53:38.019Z,12.3
2023-04-16T14:54:45.144Z,12.3
2023-04-16T14:55:52.213Z,12.4
2023-04-16T14:56:59.361Z,12.3
2023-04-16T14:58:05.972Z,12.3
2023-04-16T14:59:13.046Z,12.3
2023-04-16T15:00:20.173Z,12.3
2023-04-16T15:02:34.469Z,12.4
2023-04-16T15:03:41.077Z,12.4
2023-04-16T15:04:48.190Z,12.4
2023-04-16T15:05:55.449Z,12.3
2023-04-16T15:07:02.277Z,12.3
2023-04-16T15:08:09.345Z,12.3
2023-04-16T15:09:16.021Z,12.3
2023-04-16T15:11:30.139Z,12.2
2023-04-16T15:12:37.243Z,12.2
2023-04-16T15:13:44.346Z,12.2
2023-04-16T15:14:50.903Z,12.2
2023-04-16T15:15:58.063Z,12.2
2023-04-16T15:17:08.431Z,12.2
2023-04-16T15:18:12.222Z,12.1
2023-04-16T15:19:19.332Z,12.1
2023-04-16T15:20:25.946Z,12.1
2023-04-16T15:21:33.016Z,12.1
2023-04-16T15:22:40.179Z,12.1
2023-04-16T15:23:47.339Z,12
2023-04-16T15:24:54.439Z,12.1
2023-04-16T15:26:00.971Z,12
2023-04-16T15:27:11.882Z,12.1
2023-04-16T15:28:15.166Z,12.1
2023-04-16T15:29:22.240Z,12.1
2023-04-16T15:30:29.337Z,12
2023-04-16T15:31:36.003Z,12
2023-04-16T15:32:43.107Z,12
2023-04-16T15:33:50.164Z,12
2023-04-16T15:34:57.323Z,12
2023-04-16T15:36:04.432Z,12
2023-04-16T15:37:10.999Z,12
2023-04-16T15:38:18.073Z,12
2023-04-16T15:39:25.173Z,12
2023-04-16T15:40:32.334Z,12
2023-04-16T15:41:53.347Z,12